createdAt,value
2018-12-01T00:00:05.954Z,100648.72
2018-12-01T00:03:09.919Z,100648.72
2018-12-01T00:06:13.891Z,100654.34
2018-12-01T00:09:17.865Z,100642.02
2018-12-01T00:12:21.839Z,100648.81
2018-12-01T00:15:28.378Z,100647.16
2018-12-01T00:18:32.355Z,100649.66
2018-12-01T00:21:36.370Z,100649.35
2018-12-01T00:24:40.343Z,100656.95
2018-12-01T00:27:44.318Z,100655.28
2018-12-01T00:30:48.481Z,100651.11
2018-12-01T00:33:52.451Z,100656.64
2018-12-01T00:36:56.446Z,100656.29
2018-12-01T00:40:00.398Z,100654.62
2018-12-01T00:43:04.742Z,100653.48
2018-12-01T00:46:08.722Z,100659.38
2018-12-01T00:49:12.673Z,100653.09
2018-12-01T00:52:16.647Z,100662.00
2018-12-01T00:55:21.136Z,100661.61
2018-12-01T00:58:25.097Z,100661.13
2018-12-01T01:01:29.079Z,100662.92
2018-12-01T01:04:33.050Z,100658.27
2018-12-01T01:07:37.036Z,100659.59
2018-12-01T01:10:41.180Z,100657.97
2018-12-01T01:13:45.322Z,100657.97
2018-12-01T01:16:49.298Z,100664.37
2018-12-01T01:19:53.266Z,100666.12
2018-12-01T01:22:57.232Z,100668.67
2018-12-01T01:26:01.378Z,100661.91
2018-12-01T01:29:05.801Z,100656.88
2018-12-01T01:32:09.754Z,100661.17
2018-12-01T01:35:13.798Z,100657.45
2018-12-01T01:38:17.950Z,100660.52
2018-12-01T01:41:21.909Z,100650.83
2018-12-01T01:44:25.881Z,100649.52
2018-12-01T01:47:29.853Z,100654.64
2018-12-01T01:50:40.235Z,100651.34
2018-12-01T01:53:44.197Z,100648.45
2018-12-01T01:56:48.163Z,100659.55
2018-12-01T01:59:52.210Z,100652.52
2018-12-01T02:02:56.183Z,100646.25
2018-12-01T02:06:00.164Z,100648.80
2018-12-01T02:09:06.377Z,100644.19
2018-12-01T02:12:10.362Z,100645.02
2018-12-01T02:15:15.100Z,100642.05
2018-12-01T02:18:19.259Z,100641.17
2018-12-01T02:21:25.720Z,100635.25
2018-12-01T02:24:29.692Z,100640.85
2018-12-01T02:27:33.679Z,100638.35
2018-12-01T02:30:37.637Z,100642.09
2018-12-01T02:33:41.615Z,100640.45
2018-12-01T02:36:46.008Z,100633.31
2018-12-01T02:39:50.151Z,100628.70
2018-12-01T02:42:54.299Z,100631.20
2018-12-01T02:46:09.579Z,100628.18
2018-12-01T02:49:13.546Z,100618.98
2018-12-01T02:52:17.514Z,100615.98
2018-12-01T02:55:21.498Z,100618.22
2018-12-01T02:58:25.474Z,100634.86
2018-12-01T03:01:29.617Z,100633.91
2018-12-01T03:04:33.579Z,100638.08
2018-12-01T03:07:37.559Z,100644.55
2018-12-01T03:10:41.532Z,100642.49
2018-12-01T03:13:45.481Z,100637.88
2018-12-01T03:16:49.447Z,100629.39
2018-12-01T03:19:53.474Z,100636.53
2018-12-01T03:22:57.411Z,100629.74
2018-12-01T03:26:05.568Z,100633.99
2018-12-01T03:29:09.713Z,100644.20
2018-12-01T03:32:13.692Z,100648.77
2018-12-01T03:35:17.998Z,100654.45
2018-12-01T03:38:21.965Z,100653.18
2018-12-01T03:41:26.720Z,100651.95
2018-12-01T03:44:30.695Z,100652.78
2018-12-01T03:47:34.854Z,100652.42
2018-12-01T03:50:39.070Z,100658.77
2018-12-01T03:53:43.042Z,100646.51
2018-12-01T03:56:47.095Z,100646.47
2018-12-01T03:59:51.016Z,100641.70
2018-12-01T04:02:55.972Z,100634.07
2018-12-01T04:06:00.154Z,100636.02
2018-12-01T04:09:10.743Z,100630.50
2018-12-01T04:12:14.724Z,100618.66
2018-12-01T04:15:18.709Z,100632.11
2018-12-01T04:18:22.662Z,100637.95
2018-12-01T04:21:26.863Z,100643.91
2018-12-01T04:24:30.826Z,100647.02
2018-12-01T04:27:34.792Z,100649.48
2018-12-01T04:30:38.760Z,100649.83
2018-12-01T04:33:42.762Z,100650.66
2018-12-01T04:36:46.708Z,100651.02
2018-12-01T04:39:50.679Z,100656.47
2018-12-01T04:42:54.649Z,100659.88
2018-12-01T04:45:58.626Z,100655.62
2018-12-01T04:49:02.595Z,100650.55
2018-12-01T04:52:06.973Z,100648.79
2018-12-01T04:55:12.050Z,100654.23
2018-12-01T04:58:16.199Z,100660.11
2018-12-01T05:01:20.335Z,100667.22
2018-12-01T05:04:24.473Z,100671.42
2018-12-01T05:07:28.454Z,100671.42
2018-12-01T05:10:32.418Z,100675.11
2018-12-01T05:13:36.390Z,100676.73
2018-12-01T05:16:40.350Z,100674.16
2018-12-01T05:19:44.650Z,100677.05
2018-12-01T05:22:49.071Z,100668.50
2018-12-01T05:25:53.043Z,100668.85
2018-12-01T05:28:57.037Z,100673.45
2018-12-01T05:32:01.007Z,100661.56
2018-12-01T05:35:08.462Z,100667.84
2018-12-01T05:38:12.431Z,100672.02
2018-12-01T05:41:16.395Z,100669.81
2018-12-01T05:44:20.359Z,100672.72
2018-12-01T05:47:24.332Z,100678.23
2018-12-01T05:50:28.285Z,100679.42
2018-12-01T05:53:32.238Z,100678.55
2018-12-01T05:56:36.205Z,100670.82
2018-12-01T05:59:40.168Z,100675.83
2018-12-01T06:02:44.173Z,100673.70
2018-12-01T06:05:48.151Z,100679.98
2018-12-01T06:08:52.168Z,100681.21
2018-12-01T06:11:56.113Z,100687.09
2018-12-01T06:15:00.266Z,100680.69
2018-12-01T06:18:04.283Z,100681.91
2018-12-01T06:21:08.266Z,100673.44
2018-12-01T06:24:12.230Z,100678.88
2018-12-01T06:27:16.234Z,100685.63
2018-12-01T06:30:20.890Z,100686.42
2018-12-01T06:33:24.874Z,100690.59
2018-12-01T06:36:28.868Z,100695.64
2018-12-01T06:39:32.862Z,100695.19
2018-12-01T06:42:36.963Z,100700.19
2018-12-01T06:45:40.954Z,100698.88
2018-12-01T06:48:44.943Z,100698.44
2018-12-01T06:51:48.933Z,100705.59
2018-12-01T06:54:52.902Z,100703.39
2018-12-01T06:57:56.870Z,100707.59
2018-12-01T07:01:00.902Z,100708.82
2018-12-01T07:04:05.462Z,100711.33
2018-12-01T07:07:09.430Z,100721.42
2018-12-01T07:10:14.816Z,100716.68
2018-12-01T07:13:19.048Z,100709.46
2018-12-01T07:16:23.119Z,100716.18
2018-12-01T07:19:27.143Z,100718.69
2018-12-01T07:22:31.110Z,100705.45
2018-12-01T07:25:35.182Z,100710.06
2018-12-01T07:28:39.191Z,100705.41
2018-12-01T07:31:43.158Z,100699.82
2018-12-01T07:34:47.217Z,100699.38
2018-12-01T07:37:51.208Z,100698.94
2018-12-01T07:40:55.180Z,100709.92
2018-12-01T07:43:59.195Z,100711.98
2018-12-01T07:47:03.140Z,100710.27
2018-12-01T07:50:10.515Z,100705.56
2018-12-01T07:53:17.456Z,100712.28
2018-12-01T07:56:18.462Z,100707.63
2018-12-01T07:59:22.445Z,100710.98
2018-12-01T08:02:26.547Z,100714.33
2018-12-01T08:05:30.598Z,100713.84
2018-12-01T08:08:34.667Z,100705.31
2018-12-01T08:11:38.684Z,100700.17
2018-12-01T08:14:42.659Z,100695.03
2018-12-01T08:17:47.733Z,100691.58
2018-12-01T08:20:52.590Z,100696.23
2018-12-01T08:23:55.663Z,100690.21
2018-12-01T08:26:59.647Z,100679.58
2018-12-01T08:30:04.222Z,100683.80
2018-12-01T08:33:08.226Z,100682.86
2018-12-01T08:36:12.188Z,100694.33
2018-12-01T08:39:16.346Z,100692.57
2018-12-01T08:42:20.346Z,100698.89
2018-12-01T08:45:24.341Z,100702.26
2018-12-01T08:48:28.494Z,100704.37
2018-12-01T08:51:32.462Z,100704.74
2018-12-01T08:54:36.443Z,100703.03
2018-12-01T08:57:40.430Z,100708.47
2018-12-01T09:00:44.429Z,100709.25
2018-12-01T09:03:48.417Z,100713.47
2018-12-01T09:06:52.379Z,100702.81
2018-12-01T09:09:56.346Z,100703.20
2018-12-01T09:13:01.728Z,100698.50
2018-12-01T09:16:04.310Z,100699.73
2018-12-01T09:19:08.302Z,100700.95
2018-12-01T09:22:12.265Z,100706.83
2018-12-01T09:25:17.302Z,100705.51
2018-12-01T09:28:21.316Z,100702.94
2018-12-01T09:31:25.287Z,100699.07
2018-12-01T09:34:29.237Z,100704.56
2018-12-01T09:37:33.251Z,100704.51
2018-12-01T09:40:37.232Z,100710.83
2018-12-01T09:43:41.215Z,100716.33
2018-12-01T09:46:45.169Z,100703.09
2018-12-01T09:49:49.137Z,100706.47
2018-12-01T09:52:56.253Z,100709.39
2018-12-01T09:56:00.190Z,100711.94
2018-12-01T09:59:04.491Z,100711.06
2018-12-01T10:02:08.455Z,100716.50
2018-12-01T10:05:14.056Z,100712.63
2018-12-01T10:08:18.038Z,100705.36
2018-12-01T10:11:22.188Z,100694.67
2018-12-01T10:14:26.238Z,100698.89
2018-12-01T10:17:30.394Z,100706.03
2018-12-01T10:20:35.194Z,100695.72
2018-12-01T10:23:39.202Z,100696.95
2018-12-01T10:26:43.165Z,100697.28
2018-12-01T10:29:47.151Z,100695.10
2018-12-01T10:32:51.892Z,100697.16
2018-12-01T10:35:55.854Z,100689.02
2018-12-01T10:39:03.588Z,100690.23
2018-12-01T10:42:03.802Z,100693.95
2018-12-01T10:45:16.602Z,100700.27
2018-12-01T10:48:20.611Z,100703.59
2018-12-01T10:51:24.592Z,100709.42
2018-12-01T10:54:29.018Z,100708.09
2018-12-01T10:57:33.928Z,100704.66
2018-12-01T11:00:43.145Z,100703.75
2018-12-01T11:03:48.482Z,100702.42
2018-12-01T11:06:52.833Z,100707.91
2018-12-01T11:09:56.814Z,100712.52
2018-12-01T11:13:01.118Z,100709.47
2018-12-01T11:16:06.730Z,100708.59
2018-12-01T11:19:10.865Z,100713.23
2018-12-01T11:22:15.027Z,100701.74
2018-12-01T11:25:19.045Z,100699.58
2018-12-01T11:28:23.379Z,100697.36
2018-12-01T11:31:27.416Z,100696.48
2018-12-01T11:34:31.589Z,100685.82
2018-12-01T11:37:35.570Z,100676.39
2018-12-01T11:40:39.557Z,100672.51
2018-12-01T11:43:43.528Z,100664.38
2018-12-01T11:46:48.150Z,100661.27
2018-12-01T11:49:52.422Z,100660.00
2018-12-01T11:52:56.610Z,100656.56
2018-12-01T11:56:00.578Z,100654.78
2018-12-01T11:59:04.550Z,100655.56
2018-12-01T12:02:08.808Z,100655.48
2018-12-01T12:05:13.647Z,100660.47
2018-12-01T12:08:20.704Z,100659.52
2018-12-01T12:11:24.691Z,100659.41
2018-12-01T12:14:28.662Z,100655.97
2018-12-01T12:17:32.631Z,100663.55
2018-12-01T12:20:36.642Z,100668.98
2018-12-01T12:23:40.638Z,100654.83
2018-12-01T12:26:44.648Z,100645.38
2018-12-01T12:29:48.618Z,100644.08
2018-12-01T12:32:52.607Z,100632.53
2018-12-01T12:35:56.619Z,100633.69
2018-12-01T12:39:00.623Z,100633.19
2018-12-01T12:42:05.077Z,100632.23
2018-12-01T12:45:11.475Z,100633.87
2018-12-01T12:48:15.442Z,100633.81
2018-12-01T12:51:19.438Z,100631.65
2018-12-01T12:54:23.669Z,100622.26
2018-12-01T12:57:27.670Z,100622.59
2018-12-01T13:00:31.975Z,100627.64
2018-12-01T13:03:35.959Z,100629.24
2018-12-01T13:06:40.152Z,100634.33
2018-12-01T13:09:44.157Z,100637.27
2018-12-01T13:12:48.117Z,100635.48
2018-12-01T13:15:52.134Z,100637.14
2018-12-01T13:19:04.527Z,100636.25
2018-12-01T13:22:20.158Z,100638.36
2018-12-01T13:25:34.479Z,100637.86
2018-12-01T13:28:48.775Z,100641.24
2018-12-01T13:31:56.965Z,100639.08
2018-12-01T13:35:01.647Z,100639.08
2018-12-01T13:38:06.070Z,100642.88
2018-12-01T13:41:10.070Z,100640.77
2018-12-01T13:44:14.385Z,100650.55
2018-12-01T13:47:18.414Z,100642.05
2018-12-01T13:50:22.504Z,100648.82
2018-12-01T13:53:26.491Z,100645.88
2018-12-01T13:56:30.490Z,100648.38
2018-12-01T13:59:34.563Z,100645.81
2018-12-01T14:02:38.707Z,100650.48
2018-12-01T14:05:42.786Z,100649.20
2018-12-01T14:08:46.826Z,100649.66
2018-12-01T14:11:50.800Z,100663.20
2018-12-01T14:14:54.754Z,100655.20
2018-12-01T14:17:58.942Z,100653.48
2018-12-01T14:21:02.978Z,100648.44
2018-12-01T14:24:06.946Z,100646.27
2018-12-01T14:27:10.906Z,100648.82
2018-12-01T14:30:15.766Z,100642.88
2018-12-01T14:33:19.962Z,100640.33
2018-12-01T14:36:23.966Z,100635.21
2018-12-01T14:39:27.951Z,100633.52
2018-12-01T14:42:31.918Z,100636.52
2018-12-01T14:45:35.975Z,100632.69
2018-12-01T14:48:39.961Z,100628.47
2018-12-01T14:51:44.024Z,100633.19
2018-12-01T14:54:48.063Z,100630.64
2018-12-01T14:57:52.306Z,100621.31
2018-12-01T15:00:56.274Z,100622.59
2018-12-01T15:04:00.254Z,100614.53
2018-12-01T15:07:04.294Z,100613.70
2018-12-01T15:10:12.708Z,100602.65
2018-12-01T15:13:17.098Z,100594.59
2018-12-01T15:16:21.085Z,100604.44
2018-12-01T15:19:25.076Z,100605.72
2018-12-01T15:22:29.042Z,100602.33
2018-12-01T15:25:33.025Z,100596.00
2018-12-01T15:28:37.031Z,100596.89
2018-12-01T15:31:41.129Z,100602.00
2018-12-01T15:34:45.074Z,100598.64
2018-12-01T15:37:49.039Z,100591.04
2018-12-01T15:40:53.791Z,100585.09
2018-12-01T15:43:57.822Z,100582.16
2018-12-01T15:47:01.787Z,100577.17
2018-12-01T15:50:08.681Z,100589.94
2018-12-01T15:53:15.063Z,100574.23
2018-12-01T15:56:19.096Z,100563.66
2018-12-01T15:59:23.050Z,100558.99
2018-12-01T16:02:27.031Z,100554.39
2018-12-01T16:05:31.287Z,100551.45
2018-12-01T16:08:35.271Z,100545.13
2018-12-01T16:11:39.248Z,100539.63
2018-12-01T16:14:43.718Z,100544.80
2018-12-01T16:17:47.693Z,100531.65
2018-12-01T16:20:51.651Z,100532.98
2018-12-01T16:23:55.624Z,100538.95
2018-12-01T16:26:59.630Z,100538.13
2018-12-01T16:30:04.838Z,100542.02
2018-12-01T16:33:18.747Z,100535.30
2018-12-01T16:36:21.949Z,100522.21
2018-12-01T16:39:26.093Z,100520.61
2018-12-01T16:42:30.394Z,100510.04
2018-12-01T16:45:34.682Z,100515.20
2018-12-01T16:48:38.643Z,100519.16
2018-12-01T16:51:42.790Z,100514.44
2018-12-01T16:54:46.853Z,100511.23
2018-12-01T16:57:50.861Z,100507.16
2018-12-01T17:00:55.009Z,100508.05
2018-12-01T17:03:59.301Z,100497.58
2018-12-01T17:07:03.262Z,100503.98
2018-12-01T17:10:13.000Z,100501.11
2018-12-01T17:13:17.014Z,100491.02
2018-12-01T17:16:20.971Z,100491.52
2018-12-01T17:19:25.106Z,100496.30
2018-12-01T17:22:29.061Z,100493.45
2018-12-01T17:25:33.210Z,100496.44
2018-12-01T17:28:37.176Z,100498.22
2018-12-01T17:31:41.143Z,100495.42
2018-12-01T17:34:45.093Z,100491.59
2018-12-01T17:37:50.666Z,100492.99
2018-12-01T17:41:27.243Z,100493.05
2018-12-01T17:44:31.383Z,100491.50
2018-12-01T17:47:35.351Z,100488.51
2018-12-01T17:50:39.334Z,100482.66
2018-12-01T17:53:45.239Z,100483.10
2018-12-01T17:56:49.318Z,100460.59
2018-12-01T17:59:53.282Z,100466.08
2018-12-01T18:02:59.011Z,100465.75
2018-12-01T18:06:04.169Z,100463.97
2018-12-01T18:09:09.206Z,100460.64
2018-12-01T18:12:13.226Z,100450.94
2018-12-01T18:15:18.262Z,100455.59
2018-12-01T18:18:22.230Z,100448.06
2018-12-01T18:21:26.223Z,100449.28
2018-12-01T18:24:30.318Z,100445.45
2018-12-01T18:27:34.291Z,100446.34
2018-12-01T18:30:39.730Z,100450.11
2018-12-01T18:33:45.331Z,100448.45
2018-12-01T18:36:49.307Z,100449.78
2018-12-01T18:39:53.387Z,100448.13
2018-12-01T18:42:57.777Z,100452.78
2018-12-01T18:46:03.651Z,100447.23
2018-12-01T18:49:07.954Z,100445.07
2018-12-01T18:52:11.914Z,100440.91
2018-12-01T18:55:15.889Z,100445.59
2018-12-01T18:58:19.971Z,100450.37
2018-12-01T19:01:23.938Z,100451.20
2018-12-01T19:04:27.903Z,100445.27
2018-12-01T19:07:33.566Z,100437.17
2018-12-01T19:10:37.938Z,100433.41
2018-12-01T19:13:41.909Z,100429.14
2018-12-01T19:16:45.877Z,100424.03
2018-12-01T19:19:49.837Z,100417.27
2018-12-01T19:22:53.847Z,100416.05
2018-12-01T19:25:58.011Z,100422.16
2018-12-01T19:29:01.974Z,100418.72
2018-12-01T19:32:06.047Z,100420.08
2018-12-01T19:35:13.211Z,100420.88
2018-12-01T19:38:18.966Z,100414.98
2018-12-01T19:41:22.924Z,100412.84
2018-12-01T19:44:26.969Z,100404.78
2018-12-01T19:47:30.927Z,100400.95
2018-12-01T19:50:36.044Z,100393.81
2018-12-01T19:53:40.017Z,100393.42
2018-12-01T19:56:43.996Z,100381.50
2018-12-01T19:59:47.978Z,100386.16
2018-12-01T20:02:52.030Z,100370.47
2018-12-01T20:05:56.190Z,100371.36
2018-12-01T20:09:00.864Z,100372.25
2018-12-01T20:12:04.471Z,100367.15
2018-12-01T20:15:13.476Z,100357.72
2018-12-01T20:18:20.779Z,100351.47
2018-12-01T20:21:25.099Z,100349.42
2018-12-01T20:24:29.087Z,100339.22
2018-12-01T20:27:33.052Z,100334.00
2018-12-01T20:30:37.026Z,100331.63
2018-12-01T20:33:41.534Z,100316.72
2018-12-01T20:36:49.681Z,100306.91
2018-12-01T20:39:53.953Z,100300.09
2018-12-01T20:42:57.897Z,100289.50
2018-12-01T20:46:01.862Z,100286.12
2018-12-01T20:49:06.863Z,100270.00
2018-12-01T20:52:10.823Z,100267.03
2018-12-01T20:55:18.484Z,100272.13
2018-12-01T20:58:23.311Z,100270.02
2018-12-01T21:01:27.279Z,100271.30
2018-12-01T21:04:31.250Z,100259.00
2018-12-01T21:07:35.314Z,100248.77
2018-12-01T21:10:42.138Z,100250.45
2018-12-01T21:13:46.107Z,100241.59
2018-12-01T21:16:50.083Z,100233.95
2018-12-01T21:19:54.111Z,100224.13
2018-12-01T21:22:58.166Z,100227.63
2018-12-01T21:26:02.131Z,100228.08
2018-12-01T21:29:07.039Z,100229.36
2018-12-01T21:32:11.015Z,100235.41
2018-12-01T21:35:15.619Z,100228.59
2018-12-01T21:38:19.774Z,100220.11
2018-12-01T21:41:23.738Z,100218.90
2018-12-01T21:44:27.714Z,100211.25
2018-12-01T21:47:31.679Z,100212.65
2018-12-01T21:50:35.772Z,100206.75
2018-12-01T21:53:39.922Z,100217.33
2018-12-01T21:56:43.886Z,100216.63
2018-12-01T21:59:47.872Z,100211.91
2018-12-01T22:02:56.478Z,100199.94
2018-12-01T22:06:01.567Z,100207.77
2018-12-01T22:09:07.579Z,100202.98
2018-12-01T22:12:11.883Z,100194.52
2018-12-01T22:15:17.290Z,100190.69
2018-12-01T22:18:21.913Z,100186.42
2018-12-01T22:21:25.919Z,100179.98
2018-12-01T22:24:29.891Z,100176.98
2018-12-01T22:27:33.855Z,100171.89
2018-12-01T22:30:38.353Z,100163.36
2018-12-01T22:33:42.395Z,100156.06
2018-12-01T22:36:46.384Z,100161.60
2018-12-01T22:39:50.543Z,100161.60
2018-12-01T22:42:56.814Z,100155.23
2018-12-01T22:46:00.795Z,100152.23
2018-12-01T22:49:05.429Z,100150.52
2018-12-01T22:52:09.467Z,100144.14
2018-12-01T22:55:16.662Z,100144.59
2018-12-01T22:58:21.485Z,100133.95
2018-12-01T23:01:25.802Z,100136.05
2018-12-01T23:04:29.782Z,100135.60
2018-12-01T23:07:34.083Z,100137.27
2018-12-01T23:10:38.398Z,100135.16
2018-12-01T23:13:42.371Z,100126.62
2018-12-01T23:16:46.350Z,100121.90
2018-12-01T23:19:50.310Z,100118.91
2018-12-01T23:22:54.291Z,100109.09
2018-12-01T23:25:58.610Z,100105.27
2018-12-01T23:29:02.576Z,100099.66
2018-12-01T23:32:06.862Z,100099.27
2018-12-01T23:35:10.831Z,100092.01
2018-12-01T23:38:15.142Z,100084.26
2018-12-01T23:41:19.132Z,100083.75
2018-12-01T23:44:29.967Z,100081.58
2018-12-01T23:47:34.458Z,100072.20
2018-12-01T23:50:40.508Z,100062.08
2018-12-01T23:53:44.652Z,100052.33
2018-12-01T23:56:48.963Z,100051.36
2018-12-01T23:59:52.919Z,100042.44
